Time;durP1;ratioP1;P1;durP2;ratioP2;P2;SDS_P1;SDS_P2;PMS_P1;PMS_P2;Temp;Humidity;BMP_temperature;BMP_pressure;BME280_temperature;BME280_humidity;BME280_pressure;Samples;Min_cycle;Max_cycle;Signal;HPM_P1;HPM_P2
2022/01/16 00:01:23;;;;;;;22.40;19.07;;;4.00;97.80;;;;;;6227840;28;20999;-65
2022/01/16 00:04:27;;;;;;;29.60;19.50;;;3.90;97.90;;;;;;6228128;28;20468;-66
2022/01/16 00:07:30;;;;;;;23.43;18.50;;;3.80;97.90;;;;;;6228042;28;20478;-65
2022/01/16 00:10:34;;;;;;;21.43;17.60;;;3.80;98.00;;;;;;6227430;28;20489;-65
2022/01/16 00:13:38;;;;;;;22.73;18.37;;;3.70;98.10;;;;;;6228178;28;20467;-66
2022/01/16 00:16:41;;;;;;;21.90;17.57;;;3.70;98.20;;;;;;6227482;28;20483;-64
2022/01/16 00:19:44;;;;;;;24.90;19.30;;;3.60;98.30;;;;;;6227373;28;20582;-65
2022/01/16 00:22:49;;;;;;;23.50;18.00;;;3.50;98.30;;;;;;6227515;28;20493;-64
2022/01/16 00:25:55;;;;;;;27.63;22.03;;;3.40;98.50;;;;;;6227480;28;20983;-66
2022/01/16 00:28:58;;;;;;;29.20;22.00;;;3.30;98.70;;;;;;6227121;28;20471;-64
2022/01/16 00:32:02;;;;;;;32.60;24.70;;;3.20;98.90;;;;;;6227231;28;20483;-65
2022/01/16 00:35:06;;;;;;;33.43;26.53;;;3.10;98.90;;;;;;6222407;28;20973;-67
2022/01/16 00:38:10;;;;;;;36.60;26.10;;;3.10;98.90;;;;;;6227106;28;20472;-65
2022/01/16 00:41:17;;;;;;;34.80;26.37;;;3.00;99.00;;;;;;6226696;28;20480;-65
2022/01/16 00:44:21;;;;;;;36.90;28.43;;;2.90;99.00;;;;;;6227093;28;20798;-64
2022/01/16 00:47:24;;;;;;;37.70;26.97;;;2.90;99.10;;;;;;6226729;28;20464;-65
2022/01/16 00:50:27;;;;;;;41.10;30.40;;;2.80;99.20;;;;;;6227143;28;20480;-64
2022/01/16 00:53:30;;;;;;;36.20;25.93;;;2.70;99.20;;;;;;6225221;28;20943;-67
2022/01/16 00:56:34;;;;;;;33.00;25.70;;;2.70;99.40;;;;;;6224686;28;20770;-66
2022/01/16 00:59:38;;;;;;;33.83;25.47;;;2.60;99.50;;;;;;6224555;28;21175;-65
2022/01/16 01:02:41;;;;;;;30.03;24.17;;;2.60;99.80;;;;;;6224380;28;20479;-65
2022/01/16 01:05:45;;;;;;;34.00;23.67;;;2.50;99.90;;;;;;6225329;28;20468;-65
2022/01/16 01:08:48;;;;;;;28.40;21.73;;;2.50;99.90;;;;;;6225901;28;20554;-66
2022/01/16 01:11:52;;;;;;;33.20;22.73;;;2.50;99.90;;;;;;6226469;28;20476;-66
2022/01/16 01:15:07;;;;;;;31.27;22.67;;;2.60;99.90;;;;;;6226623;28;20479;-66
2022/01/16 01:18:10;;;;;;;31.77;22.63;;;2.60;99.90;;;;;;6233820;28;20468;-66
2022/01/16 01:21:26;;;;;;;29.87;22.13;;;2.60;99.90;;;;;;6235220;28;20474;-66
2022/01/16 01:24:30;;;;;;;24.97;20.83;;;2.60;99.90;;;;;;6234419;28;20835;-67
2022/01/16 01:27:35;;;;;;;29.73;22.80;;;2.60;99.90;;;;;;6242545;28;20570;-67
2022/01/16 01:30:39;;;;;;;32.77;25.40;;;2.50;99.90;;;;;;6234524;28;20472;-66
2022/01/16 01:33:42;;;;;;;29.60;23.73;;;2.50;99.90;;;;;;6226009;28;20471;-66
2022/01/16 01:36:48;;;;;;;34.93;25.43;;;2.50;99.90;;;;;;6225402;28;20480;-66
2022/01/16 01:39:51;;;;;;;32.00;24.70;;;2.40;99.90;;;;;;6217484;28;20491;-66
2022/01/16 01:50:59;;;;;;;32.57;25.17;;;2.30;99.90;;;;;;6226412;28;20486;-66
2022/01/16 01:53:03;;;;;;;36.20;25.80;;;2.10;99.90;;;;;;6183412;28;20476;-66
2022/01/16 01:56:09;;;;;;;34.90;25.53;;;1.90;99.90;;;;;;6225823;28;20960;-66
2022/01/16 01:59:14;;;;;;;32.73;26.10;;;1.90;99.90;;;;;;6232610;28;20927;-65
2022/01/16 02:02:17;;;;;;;31.50;25.67;;;1.80;99.90;;;;;;6244096;28;20447;-65
2022/01/16 02:05:20;;;;;;;36.13;26.80;;;1.80;99.90;;;;;;6250368;28;20529;-66
2022/01/16 02:08:23;;;;;;;33.33;25.57;;;1.70;99.90;;;;;;6250241;28;20455;-66
2022/01/16 02:11:29;;;;;;;36.23;26.80;;;1.70;99.90;;;;;;6250519;28;20459;-66
2022/01/16 02:14:47;;;;;;;33.83;25.77;;;1.60;99.90;;;;;;6250410;28;20427;-66
2022/01/16 02:28:05;;;;;;;31.50;23.47;;;1.60;99.90;;;;;;6232894;28;20535;-70
2022/01/16 02:31:19;;;;;;;34.40;23.87;;;1.50;99.90;;;;;;6225241;28;20486;-66
2022/01/16 02:34:32;;;;;;;30.40;23.87;;;1.50;99.90;;;;;;6233517;28;20475;-66
2022/01/16 02:37:35;;;;;;;35.07;26.23;;;1.50;99.90;;;;;;6240220;28;21173;-67
2022/01/16 02:40:44;;;;;;;35.80;25.17;;;1.40;99.90;;;;;;6230015;28;20488;-66
2022/01/16 02:43:50;;;;;;;34.63;25.17;;;1.40;99.90;;;;;;6220099;28;20804;-66
2022/01/16 02:46:55;;;;;;;34.93;23.13;;;1.40;99.90;;;;;;6226807;28;20947;-66
2022/01/16 02:50:01;;;;;;;32.20;23.80;;;1.40;99.90;;;;;;6229480;28;20498;-66
2022/01/16 02:53:09;;;;;;;32.60;24.00;;;1.40;99.90;;;;;;6229662;28;20771;-66
2022/01/16 02:56:14;;;;;;;31.87;23.97;;;1.30;99.90;;;;;;6231999;28;20467;-66
2022/01/16 02:59:18;;;;;;;34.60;25.57;;;1.30;99.90;;;;;;6231934;28;20486;-66
2022/01/16 03:02:23;;;;;;;30.70;24.07;;;1.30;99.90;;;;;;6229786;28;20907;-66
2022/01/16 03:05:27;;;;;;;35.37;25.27;;;1.20;99.90;;;;;;6229105;28;20569;-66
2022/01/16 03:08:30;;;;;;;31.07;24.47;;;1.10;99.90;;;;;;6228990;28;20860;-66
2022/01/16 03:11:36;;;;;;;29.40;23.60;;;1.10;99.90;;;;;;6229818;28;20507;-66
2022/01/16 03:14:39;;;;;;;33.33;21.90;;;1.10;99.90;;;;;;6229545;28;20532;-66
2022/01/16 03:21:53;;;;;;;32.17;24.60;;;1.10;99.90;;;;;;6229787;28;20463;-66
2022/01/16 03:24:38;;;;;;;32.90;23.00;;;1.10;99.90;;;;;;6229632;28;20480;-66
2022/01/16 03:27:42;;;;;;;34.20;24.70;;;1.10;99.90;;;;;;6230154;28;20479;-66
2022/01/16 03:30:46;;;;;;;35.43;24.33;;;1.20;99.90;;;;;;6229310;28;20468;-66
2022/01/16 03:33:49;;;;;;;28.83;23.70;;;1.20;99.90;;;;;;6229312;28;20474;-66
2022/01/16 03:36:52;;;;;;;30.07;23.00;;;1.20;99.90;;;;;;6237799;28;20476;-66
2022/01/16 03:39:56;;;;;;;29.90;22.73;;;1.30;99.90;;;;;;6232985;28;20526;-66
2022/01/16 03:43:09;;;;;;;26.27;21.93;;;1.30;99.90;;;;;;6228784;28;20482;-67
2022/01/16 03:46:12;;;;;;;28.90;22.93;;;1.30;99.90;;;;;;6228133;28;20476;-67
2022/01/16 03:49:18;;;;;;;23.87;20.00;;;1.40;99.90;;;;;;6228145;28;20472;-66
2022/01/16 03:52:21;;;;;;;19.67;17.53;;;1.40;99.90;;;;;;6228769;28;20764;-66
2022/01/16 03:55:24;;;;;;;26.43;18.40;;;1.40;99.90;;;;;;6228528;28;20522;-66
2022/01/16 03:58:34;;;;;;;24.60;18.40;;;1.40;99.90;;;;;;6228380;28;20471;-66
2022/01/16 04:01:38;;;;;;;21.60;15.80;;;1.40;99.90;;;;;;6229457;28;20476;-66
2022/01/16 04:04:41;;;;;;;19.57;15.13;;;1.40;99.90;;;;;;6227998;28;20476;-66
2022/01/16 04:07:44;;;;;;;19.47;13.97;;;1.40;99.90;;;;;;6227791;28;20492;-66
2022/01/16 04:10:47;;;;;;;21.40;14.07;;;1.40;99.90;;;;;;6227492;28;20505;-67
2022/01/16 04:13:54;;;;;;;20.00;14.43;;;1.40;99.90;;;;;;6227948;28;20475;-66
2022/01/16 04:16:57;;;;;;;20.83;13.87;;;1.40;99.90;;;;;;6227583;28;20483;-66
2022/01/16 04:20:00;;;;;;;20.07;14.60;;;1.40;99.90;;;;;;6227660;28;20558;-66
2022/01/16 04:23:04;;;;;;;18.90;14.00;;;1.40;99.90;;;;;;6227273;28;20491;-67
2022/01/16 04:26:07;;;;;;;18.83;14.50;;;1.40;99.90;;;;;;6227149;28;20887;-66
2022/01/16 04:29:12;;;;;;;15.67;12.00;;;1.40;99.90;;;;;;6227211;28;20819;-66
2022/01/16 04:32:15;;;;;;;25.73;15.17;;;1.40;99.90;;;;;;6227220;28;20468;-66
2022/01/16 04:35:19;;;;;;;18.67;13.83;;;1.40;99.90;;;;;;6227344;28;20475;-66
2022/01/16 04:38:22;;;;;;;15.60;13.13;;;1.30;99.90;;;;;;6227227;28;20514;-66
2022/01/16 04:44:47;;;;;;;18.80;13.03;;;1.30;99.90;;;;;;6226937;28;20475;-66
2022/01/16 04:47:52;;;;;;;15.30;11.80;;;1.30;99.90;;;;;;6227889;28;20468;-66
2022/01/16 04:50:55;;;;;;;20.20;12.90;;;1.20;99.90;;;;;;6227074;28;20479;-66
2022/01/16 04:53:59;;;;;;;14.40;12.87;;;1.20;99.90;;;;;;6227010;28;20529;-66
2022/01/16 04:57:02;;;;;;;15.97;12.77;;;1.20;99.90;;;;;;6226411;28;20468;-66
2022/01/16 05:00:10;;;;;;;20.23;14.23;;;1.20;99.90;;;;;;6226672;28;20503;-66
2022/01/16 05:03:14;;;;;;;17.40;13.73;;;1.10;99.90;;;;;;6226482;28;20603;-65
2022/01/16 05:06:17;;;;;;;15.70;12.80;;;1.10;99.90;;;;;;6226111;28;20936;-65
2022/01/16 05:09:20;;;;;;;15.50;13.17;;;1.10;99.90;;;;;;6226044;28;20480;-65
2022/01/16 05:12:29;;;;;;;16.90;13.83;;;1.10;99.90;;;;;;6226204;28;20476;-65
2022/01/16 05:18:55;;;;;;;17.87;13.10;;;1.10;99.90;;;;;;6226233;28;20482;-65
2022/01/16 05:21:58;;;;;;;16.60;12.67;;;1.20;99.90;;;;;;6226442;28;20475;-65
2022/01/16 05:25:01;;;;;;;18.13;13.30;;;1.10;99.90;;;;;;6226255;28;20480;-65
2022/01/16 05:28:05;;;;;;;16.67;12.80;;;1.10;99.90;;;;;;6226205;28;20468;-65
2022/01/16 05:31:09;;;;;;;18.33;13.93;;;1.10;99.90;;;;;;6226081;28;20951;-66
2022/01/16 05:34:13;;;;;;;14.20;12.40;;;1.10;99.90;;;;;;6226042;28;20472;-66
2022/01/16 05:37:16;;;;;;;20.10;15.07;;;1.10;99.90;;;;;;6225930;28;20463;-66
2022/01/16 05:40:19;;;;;;;13.87;12.00;;;1.10;99.90;;;;;;6229485;28;20820;-65
2022/01/16 05:43:22;;;;;;;17.33;13.30;;;1.10;99.90;;;;;;6237030;28;20471;-65
2022/01/16 05:46:28;;;;;;;15.17;12.53;;;1.00;99.90;;;;;;6238179;28;20475;-64
2022/01/16 05:49:31;;;;;;;19.00;13.47;;;1.00;99.90;;;;;;6236625;28;20482;-64
2022/01/16 05:52:34;;;;;;;18.77;12.33;;;1.00;99.90;;;;;;6237862;28;20470;-65
2022/01/16 05:55:37;;;;;;;19.67;14.10;;;1.00;99.90;;;;;;6227861;28;20471;-65
2022/01/16 05:58:41;;;;;;;18.33;12.67;;;1.00;99.90;;;;;;6238498;28;20757;-65
2022/01/16 06:01:45;;;;;;;16.40;12.70;;;1.00;99.90;;;;;;6236142;28;20535;-65
2022/01/16 06:04:49;;;;;;;16.50;13.50;;;0.90;99.90;;;;;;6233622;28;20550;-64
2022/01/16 06:07:56;;;;;;;16.27;13.10;;;0.90;99.90;;;;;;6237420;28;20474;-65
2022/01/16 06:11:00;;;;;;;22.80;14.10;;;0.90;99.90;;;;;;6236372;28;20471;-65
2022/01/16 06:14:03;;;;;;;20.13;15.47;;;0.80;99.90;;;;;;6237230;28;20471;-64
2022/01/16 06:17:07;;;;;;;20.37;14.80;;;0.80;99.90;;;;;;6240922;28;20471;-65
2022/01/16 06:20:11;;;;;;;22.23;16.60;;;0.80;99.90;;;;;;6249904;28;20497;-64
2022/01/16 06:23:14;;;;;;;19.90;14.40;;;0.80;99.90;;;;;;6242083;28;20471;-65
2022/01/16 06:26:17;;;;;;;19.10;14.30;;;0.70;99.90;;;;;;6239148;28;20490;-64
2022/01/16 06:29:21;;;;;;;20.77;15.67;;;0.70;99.90;;;;;;6239542;28;20479;-64
2022/01/16 06:32:25;;;;;;;21.27;15.77;;;0.70;99.90;;;;;;6241649;28;20451;-64
2022/01/16 06:35:28;;;;;;;22.90;16.60;;;0.70;99.90;;;;;;6234995;28;20451;-64
2022/01/16 06:38:32;;;;;;;22.63;16.73;;;0.70;99.90;;;;;;6231391;28;20463;-64
2022/01/16 06:41:35;;;;;;;20.87;15.23;;;0.70;99.90;;;;;;6253835;28;20482;-64
2022/01/16 06:44:38;;;;;;;21.23;15.63;;;0.70;99.90;;;;;;6253989;28;20482;-64
2022/01/16 06:47:43;;;;;;;22.20;16.13;;;0.70;99.90;;;;;;6254714;28;20455;-65
2022/01/16 06:50:46;;;;;;;20.20;16.20;;;0.70;99.90;;;;;;6254201;28;20505;-64
2022/01/16 06:53:51;;;;;;;24.07;16.77;;;0.80;99.90;;;;;;6254042;28;20478;-64
2022/01/16 06:56:54;;;;;;;22.03;16.00;;;0.80;99.90;;;;;;6249363;28;20467;-64
2022/01/16 06:59:57;;;;;;;20.40;18.00;;;0.80;99.90;;;;;;6253606;28;20826;-64
2022/01/16 07:03:01;;;;;;;21.73;17.30;;;0.80;99.90;;;;;;6253584;28;20812;-64
2022/01/16 07:06:05;;;;;;;24.53;17.87;;;0.80;99.90;;;;;;6254081;28;20479;-65
2022/01/16 07:09:08;;;;;;;23.10;17.47;;;0.80;99.90;;;;;;6254006;28;20486;-64
2022/01/16 07:12:12;;;;;;;20.13;16.10;;;0.80;99.90;;;;;;6253991;28;20545;-65
2022/01/16 07:15:15;;;;;;;21.60;16.97;;;0.90;99.90;;;;;;6253872;28;20477;-64
2022/01/16 07:18:21;;;;;;;20.57;16.03;;;0.90;99.90;;;;;;6252786;28;20489;-65
2022/01/16 07:21:24;;;;;;;27.07;19.27;;;1.00;99.90;;;;;;6253508;28;20470;-65
2022/01/16 07:24:27;;;;;;;30.33;19.00;;;1.00;99.90;;;;;;6253752;28;20544;-65
2022/01/16 07:27:30;;;;;;;25.97;19.67;;;1.10;99.90;;;;;;6253307;28;20467;-66
2022/01/16 07:30:33;;;;;;;25.83;19.60;;;1.10;99.90;;;;;;6253410;28;20489;-64
2022/01/16 07:33:38;;;;;;;26.83;18.87;;;1.20;99.90;;;;;;6251074;28;20789;-65
2022/01/16 07:36:41;;;;;;;25.37;17.70;;;1.10;99.70;;;;;;6251721;28;20795;-64
2022/01/16 07:39:44;;;;;;;23.83;17.80;;;1.20;99.60;;;;;;6251009;28;20479;-65
2022/01/16 07:42:47;;;;;;;26.90;19.43;;;1.20;99.70;;;;;;6251551;28;20475;-64
2022/01/16 07:45:51;;;;;;;27.67;18.47;;;1.20;99.60;;;;;;6251385;28;20475;-64
2022/01/16 07:48:55;;;;;;;33.13;21.50;;;1.20;99.70;;;;;;6252407;28;20478;-64
2022/01/16 07:51:58;;;;;;;25.47;20.90;;;1.20;99.70;;;;;;6253240;28;20814;-64
2022/01/16 07:55:02;;;;;;;27.93;20.13;;;1.20;99.80;;;;;;6240244;28;20467;-64
2022/01/16 07:58:05;;;;;;;31.13;20.73;;;1.10;99.90;;;;;;6237103;28;20468;-66
2022/01/16 08:01:08;;;;;;;27.23;19.93;;;1.20;99.90;;;;;;6227515;28;20480;-65
2022/01/16 08:04:13;;;;;;;26.40;20.70;;;1.20;99.90;;;;;;6228006;28;20480;-65
2022/01/16 08:07:17;;;;;;;27.07;20.67;;;1.40;99.90;;;;;;6226259;28;20502;-66
2022/01/16 08:10:20;;;;;;;30.57;21.90;;;1.50;99.90;;;;;;6226145;28;20827;-65
2022/01/16 08:13:23;;;;;;;32.63;22.33;;;1.60;99.90;;;;;;6226030;28;20476;-66
2022/01/16 08:16:27;;;;;;;26.70;20.77;;;1.60;99.90;;;;;;6225762;28;20467;-66
2022/01/16 08:19:31;;;;;;;27.43;20.30;;;1.60;99.90;;;;;;6225031;28;21003;-67
2022/01/16 08:22:35;;;;;;;33.27;24.43;;;1.60;99.90;;;;;;6225729;28;20853;-66
2022/01/16 08:25:38;;;;;;;29.83;25.10;;;1.60;99.90;;;;;;6226130;28;20467;-66
2022/01/16 08:28:41;;;;;;;32.87;25.40;;;1.50;99.90;;;;;;6225823;28;20476;-66
2022/01/16 08:31:44;;;;;;;37.70;26.17;;;1.40;99.90;;;;;;6225901;28;20475;-66
2022/01/16 08:34:49;;;;;;;36.03;25.30;;;1.30;99.90;;;;;;6227531;28;20471;-66
2022/01/16 08:37:53;;;;;;;28.93;23.10;;;1.40;99.90;;;;;;6226887;28;20863;-66
2022/01/16 08:40:56;;;;;;;28.13;23.00;;;1.60;99.90;;;;;;6226996;28;20484;-66
2022/01/16 08:44:00;;;;;;;28.80;22.33;;;1.50;99.90;;;;;;6227122;28;20484;-66
2022/01/16 08:47:04;;;;;;;30.50;23.77;;;1.50;99.90;;;;;;6226603;28;20503;-66
2022/01/16 08:50:10;;;;;;;29.17;22.10;;;1.60;99.90;;;;;;6227219;28;20498;-67
2022/01/16 08:53:13;;;;;;;30.27;22.40;;;1.80;99.90;;;;;;6227164;28;20476;-66
2022/01/16 08:56:17;;;;;;;34.50;25.00;;;1.80;99.90;;;;;;6227264;28;20784;-66
2022/01/16 08:59:20;;;;;;;33.07;22.40;;;1.80;99.90;;;;;;6227763;28;20464;-66
2022/01/16 09:02:24;;;;;;;25.77;22.77;;;2.00;99.90;;;;;;6227737;28;20892;-66
2022/01/16 09:05:29;;;;;;;30.77;25.47;;;2.00;99.80;;;;;;6227394;28;20456;-66
2022/01/16 09:08:33;;;;;;;30.23;25.17;;;2.20;99.50;;;;;;6227747;28;21006;-66
2022/01/16 09:11:36;;;;;;;34.00;24.63;;;2.20;99.50;;;;;;6227525;28;20769;-66
2022/01/16 09:14:39;;;;;;;31.93;25.20;;;2.20;99.40;;;;;;6226702;28;20459;-66
2022/01/16 09:17:42;;;;;;;37.37;27.00;;;2.30;99.30;;;;;;6226539;28;20456;-65
2022/01/16 09:20:47;;;;;;;34.77;24.17;;;2.30;99.10;;;;;;6226275;28;20468;-65
2022/01/16 09:23:51;;;;;;;28.00;25.00;;;2.30;99.50;;;;;;6226590;28;20870;-65
2022/01/16 09:26:56;;;;;;;31.17;24.80;;;2.40;99.50;;;;;;6226171;28;20478;-65
2022/01/16 09:29:59;;;;;;;32.87;25.40;;;2.60;99.30;;;;;;6226029;28;20480;-65
2022/01/16 09:33:02;;;;;;;37.90;27.03;;;2.70;99.20;;;;;;6226419;28;20468;-66
2022/01/16 09:36:09;;;;;;;33.60;24.67;;;2.70;99.00;;;;;;6226099;28;20475;-66
2022/01/16 09:39:12;;;;;;;30.63;24.20;;;2.80;99.10;;;;;;6226158;28;20468;-66
2022/01/16 09:42:16;;;;;;;36.70;25.07;;;2.90;99.10;;;;;;6226125;28;20482;-66
2022/01/16 09:45:20;;;;;;;35.93;22.70;;;2.80;98.90;;;;;;6225985;28;20790;-67
2022/01/16 09:48:23;;;;;;;26.70;23.00;;;3.00;99.10;;;;;;6225555;28;20809;-66
2022/01/16 09:51:28;;;;;;;28.33;22.63;;;3.00;98.90;;;;;;6225622;28;20483;-66
2022/01/16 09:54:31;;;;;;;27.07;21.90;;;3.00;99.00;;;;;;6226742;28;20531;-66
2022/01/16 09:57:34;;;;;;;27.80;23.13;;;3.20;99.10;;;;;;6226780;28;20860;-66
2022/01/16 10:00:38;;;;;;;32.33;22.43;;;3.30;99.00;;;;;;6227570;28;20827;-66
2022/01/16 10:03:43;;;;;;;33.43;24.80;;;3.50;98.80;;;;;;6230153;28;20817;-67
2022/01/16 10:06:58;;;;;;;28.83;23.40;;;3.70;98.60;;;;;;6229951;28;20579;-66
2022/01/16 10:10:10;;;;;;;25.07;21.80;;;3.70;98.50;;;;;;6223984;28;20492;-66
2022/01/16 10:13:21;;;;;;;33.30;24.47;;;3.80;98.50;;;;;;6232372;28;20476;-66
2022/01/16 10:16:27;;;;;;;34.10;23.90;;;4.00;98.40;;;;;;6230565;28;20487;-66
2022/01/16 10:19:31;;;;;;;33.70;26.10;;;4.10;98.10;;;;;;6231558;28;20475;-67
2022/01/16 10:22:44;;;;;;;32.47;25.70;;;4.10;98.10;;;;;;6233615;28;20486;-66
2022/01/16 10:25:48;;;;;;;33.70;24.60;;;4.10;98.10;;;;;;6235779;28;20483;-66
2022/01/16 10:28:52;;;;;;;28.67;23.57;;;4.00;98.20;;;;;;6237534;28;20480;-66
2022/01/16 10:32:11;;;;;;;30.30;23.40;;;4.10;98.70;;;;;;6238288;28;20551;-67
2022/01/16 10:35:17;;;;;;;31.23;22.33;;;4.30;98.40;;;;;;6232909;28;20480;-67
2022/01/16 10:38:24;;;;;;;26.80;21.20;;;4.50;98.40;;;;;;6228795;28;20476;-67
2022/01/16 10:41:27;;;;;;;33.57;21.80;;;4.70;98.20;;;;;;6228081;28;20483;-67
2022/01/16 10:44:32;;;;;;;25.53;21.53;;;4.80;98.00;;;;;;6228906;28;20451;-67
2022/01/16 10:47:40;;;;;;;32.03;22.50;;;5.00;98.00;;;;;;6228854;28;20487;-67
2022/01/16 10:50:45;;;;;;;28.50;20.90;;;5.10;97.50;;;;;;6228265;28;20575;-67
2022/01/16 10:53:50;;;;;;;26.07;20.23;;;5.10;97.50;;;;;;6228420;28;20467;-67
2022/01/16 10:56:53;;;;;;;25.80;20.43;;;5.30;97.60;;;;;;6227878;28;20476;-67
2022/01/16 11:00:10;;;;;;;25.87;20.90;;;5.40;97.50;;;;;;6227039;28;20807;-67
2022/01/16 11:03:15;;;;;;;24.87;19.97;;;5.50;96.80;;;;;;6227540;28;20960;-67
2022/01/16 11:06:21;;;;;;;25.97;20.23;;;5.80;96.80;;;;;;6226822;28;20476;-67
2022/01/16 11:09:31;;;;;;;28.57;20.40;;;6.30;96.10;;;;;;6230935;28;20944;-67
2022/01/16 11:12:37;;;;;;;22.50;19.43;;;6.60;95.10;;;;;;6231356;28;20995;-67
2022/01/16 11:15:42;;;;;;;23.43;20.40;;;6.70;94.90;;;;;;6231409;28;20471;-67
2022/01/16 11:18:49;;;;;;;22.10;19.10;;;6.90;94.30;;;;;;6230700;28;20475;-67
2022/01/16 11:21:55;;;;;;;24.73;20.50;;;7.30;94.30;;;;;;6230303;28;20475;-67
2022/01/16 11:25:11;;;;;;;20.73;17.23;;;11.00;90.90;;;;;;6230286;28;20955;-67
2022/01/16 11:28:18;;;;;;;21.50;17.53;;;15.80;72.90;;;;;;6229973;28;20537;-65
2022/01/16 11:31:22;;;;;;;19.30;17.30;;;20.40;52.70;;;;;;6229045;28;20479;-65
2022/01/16 11:34:27;;;;;;;20.40;18.40;;;23.40;41.20;;;;;;6229135;28;20363;-67
2022/01/16 11:37:31;;;;;;;20.47;18.63;;;25.10;35.80;;;;;;6229587;28;20225;-69
2022/01/16 11:40:57;;;;;;;20.93;19.03;;;26.40;30.20;;;;;;6229824;28;20245;-67
2022/01/16 11:44:03;;;;;;;20.10;18.33;;;26.30;30.30;;;;;;6228864;28;20229;-67
2022/01/16 11:47:07;;;;;;;20.93;18.73;;;27.80;28.60;;;;;;6229048;28;20232;-66
2022/01/16 11:50:12;;;;;;;21.90;19.77;;;29.20;26.70;;;;;;6229071;28;20577;-68
2022/01/16 11:53:48;;;;;;;22.03;20.10;;;30.20;25.80;;;;;;6228548;28;20224;-67
2022/01/16 11:56:59;;;;;;;21.23;19.40;;;31.10;24.90;;;;;;6228073;28;20660;-67
2022/01/16 12:00:11;;;;;;;21.63;19.63;;;31.40;23.40;;;;;;6227554;28;20235;-67
2022/01/16 12:03:34;;;;;;;22.10;20.20;;;31.60;22.80;;;;;;6227819;28;20228;-68
2022/01/16 12:06:38;;;;;;;22.42;20.73;;;32.10;22.50;;;;;;6228557;28;20239;-67
2022/01/16 12:09:59;;;;;;;21.60;19.80;;;32.10;22.10;;;;;;6228639;28;20228;-69
2022/01/16 12:13:04;;;;;;;23.47;21.47;;;31.10;22.30;;;;;;6228187;28;20243;-67
2022/01/16 12:16:40;;;;;;;22.83;20.93;;;30.70;22.80;;;;;;6224202;28;20247;-67
2022/01/16 12:19:47;;;;;;;20.83;18.83;;;31.20;22.20;;;;;;6227404;28;20260;-67
2022/01/16 12:22:53;;;;;;;22.03;20.10;;;30.60;22.20;;;;;;6228810;28;20228;-67
2022/01/16 12:26:34;;;;;;;22.13;20.07;;;30.60;22.80;;;;;;6228653;28;20242;-68
2022/01/16 12:30:37;;;;;;;20.97;19.17;;;31.20;22.50;;;;;;6228512;28;20243;-67
2022/01/16 12:33:42;;;;;;;20.23;18.42;;;32.00;21.80;;;;;;6228459;28;20236;-69
2022/01/16 12:36:45;;;;;;;22.08;20.27;;;32.60;21.20;;;;;;6228033;28;20220;-68
2022/01/16 12:39:48;;;;;;;20.92;19.02;;;32.90;20.90;;;;;;6227833;28;20251;-67
2022/01/16 12:42:51;;;;;;;21.52;19.73;;;33.10;20.80;;;;;;6227819;28;20242;-67
2022/01/16 12:45:56;;;;;;;20.23;18.52;;;33.10;20.50;;;;;;6228105;28;20232;-69
2022/01/16 12:49:03;;;;;;;20.52;18.73;;;32.90;20.50;;;;;;6226973;28;20640;-67
2022/01/16 12:52:06;;;;;;;19.23;17.48;;;32.80;20.40;;;;;;6227065;28;20305;-68
2022/01/16 12:55:10;;;;;;;19.27;17.63;;;32.50;20.60;;;;;;6226774;28;20235;-69
2022/01/16 12:58:16;;;;;;;21.53;19.60;;;32.60;20.50;;;;;;6227183;28;20232;-68
2022/01/16 13:01:21;;;;;;;20.07;18.00;;;31.90;20.70;;;;;;6226885;28;20715;-67
2022/01/16 13:04:28;;;;;;;20.30;18.40;;;31.40;21.10;;;;;;6228113;28;20231;-68
2022/01/16 13:07:32;;;;;;;19.60;17.80;;;31.60;21.00;;;;;;6228297;28;20246;-68
2022/01/16 13:10:35;;;;;;;19.43;17.73;;;31.80;21.10;;;;;;6227227;28;20236;-67
2022/01/16 13:13:38;;;;;;;20.13;18.43;;;32.10;20.90;;;;;;6227876;28;20294;-69
2022/01/16 13:16:44;;;;;;;19.97;18.33;;;31.90;20.60;;;;;;6227602;28;20228;-68
2022/01/16 13:19:52;;;;;;;19.13;17.57;;;31.30;21.20;;;;;;6227758;28;20228;-68
2022/01/16 13:22:57;;;;;;;20.13;18.33;;;31.00;21.10;;;;;;6227375;28;20237;-68
2022/01/16 13:26:00;;;;;;;20.20;18.33;;;30.80;21.50;;;;;;6227417;28;20232;-68
2022/01/16 13:29:05;;;;;;;21.13;19.20;;;30.80;21.50;;;;;;6226112;28;20600;-68
2022/01/16 13:32:15;;;;;;;20.03;18.03;;;30.70;21.70;;;;;;6225447;28;20232;-68
2022/01/16 13:35:23;;;;;;;19.00;17.30;;;30.60;21.60;;;;;;6225928;28;20246;-68
2022/01/16 13:38:30;;;;;;;19.20;17.57;;;30.60;21.50;;;;;;6226460;28;20231;-68
2022/01/16 13:41:34;;;;;;;19.40;17.60;;;30.50;21.70;;;;;;6226110;28;20261;-67
2022/01/16 13:44:37;;;;;;;20.27;18.47;;;30.20;21.90;;;;;;6226252;28;20211;-66
2022/01/16 13:47:49;;;;;;;18.67;16.93;;;29.10;22.50;;;;;;6225786;28;20218;-66
2022/01/16 13:50:54;;;;;;;21.20;19.20;;;28.90;22.90;;;;;;6225785;28;20234;-66
2022/01/16 13:54:10;;;;;;;18.97;17.37;;;28.70;23.10;;;;;;6225918;28;20249;-66
2022/01/16 13:57:14;;;;;;;19.13;17.37;;;28.40;23.30;;;;;;6225681;28;20684;-66
2022/01/16 14:00:19;;;;;;;18.33;16.73;;;28.20;23.50;;;;;;6225449;28;20235;-67
2022/01/16 14:03:26;;;;;;;20.43;18.43;;;28.10;23.50;;;;;;6225093;28;20563;-67
2022/01/16 14:06:31;;;;;;;20.80;18.90;;;27.40;24.10;;;;;;6225257;28;20558;-67
2022/01/16 14:09:45;;;;;;;20.00;18.10;;;27.10;24.30;;;;;;6225112;28;20250;-67
2022/01/16 14:12:55;;;;;;;19.47;17.60;;;27.00;24.50;;;;;;6225517;28;20563;-67
2022/01/16 14:16:06;;;;;;;19.57;17.67;;;26.60;24.80;;;;;;6225559;28;20239;-67
2022/01/16 14:19:12;;;;;;;18.27;16.50;;;25.90;25.30;;;;;;6225080;28;20225;-67
2022/01/16 14:22:18;;;;;;;18.97;17.07;;;25.10;25.90;;;;;;6225991;28;20240;-66
2022/01/16 14:25:21;;;;;;;19.90;17.93;;;24.20;26.80;;;;;;6216475;28;20232;-66
2022/01/16 14:28:24;;;;;;;20.80;18.80;;;22.90;27.90;;;;;;6225211;28;20251;-66
2022/01/16 14:31:27;;;;;;;18.47;16.60;;;21.40;29.10;;;;;;6224620;28;20570;-66
2022/01/16 14:34:33;;;;;;;18.37;16.57;;;20.00;30.60;;;;;;6225131;28;20363;-65
2022/01/16 14:37:36;;;;;;;19.00;16.23;;;18.70;32.40;;;;;;6225318;28;20239;-65
2022/01/16 14:40:39;;;;;;;18.33;16.50;;;17.40;34.40;;;;;;6225053;28;20476;-65
2022/01/16 14:43:54;;;;;;;18.40;16.37;;;16.20;36.50;;;;;;6228087;28;20490;-65
2022/01/16 14:46:59;;;;;;;18.80;16.87;;;15.00;38.70;;;;;;6229717;28;20486;-65
2022/01/16 14:50:05;;;;;;;18.63;16.27;;;13.90;40.70;;;;;;6229683;28;20480;-65
2022/01/16 14:53:08;;;;;;;19.07;17.27;;;13.10;42.70;;;;;;6229805;28;20475;-65
2022/01/16 14:56:13;;;;;;;18.20;16.40;;;12.30;45.00;;;;;;6229826;28;20498;-64
2022/01/16 14:59:17;;;;;;;18.20;16.40;;;11.60;46.60;;;;;;6229567;28;20483;-64
2022/01/16 15:02:20;;;;;;;20.83;17.43;;;11.10;48.20;;;;;;6229821;28;20476;-66
2022/01/16 15:05:25;;;;;;;21.13;17.63;;;10.70;49.50;;;;;;6229805;28;20490;-67
2022/01/16 15:08:28;;;;;;;22.63;18.60;;;10.20;51.70;;;;;;6230410;28;20440;-67
2022/01/16 15:11:32;;;;;;;19.07;16.80;;;9.90;54.10;;;;;;6229596;28;20510;-67
2022/01/16 15:14:35;;;;;;;22.27;16.70;;;9.60;55.00;;;;;;6229104;28;20451;-67
2022/01/16 15:17:43;;;;;;;21.00;18.90;;;9.30;56.90;;;;;;6229287;28;20514;-67
2022/01/16 15:20:50;;;;;;;20.63;18.43;;;9.10;58.30;;;;;;6229075;28;20478;-67
2022/01/16 15:24:04;;;;;;;22.00;18.90;;;8.90;59.70;;;;;;6228916;28;20468;-67
2022/01/16 15:27:08;;;;;;;21.43;18.03;;;8.70;61.60;;;;;;6228658;28;20823;-67
2022/01/16 15:30:17;;;;;;;19.90;17.27;;;8.50;63.40;;;;;;6228745;28;20562;-67
2022/01/16 15:33:20;;;;;;;23.57;19.33;;;8.30;65.30;;;;;;6229405;28;20483;-67
2022/01/16 15:36:25;;;;;;;25.23;21.23;;;8.20;66.50;;;;;;6229108;28;20472;-67
2022/01/16 15:39:29;;;;;;;23.30;20.30;;;8.00;71.40;;;;;;6230502;28;20480;-67
2022/01/16 15:42:32;;;;;;;20.80;17.77;;;7.90;72.20;;;;;;6230121;28;20472;-67
2022/01/16 15:45:35;;;;;;;23.90;20.07;;;7.80;72.40;;;;;;6229682;28;20514;-67
2022/01/16 15:48:38;;;;;;;27.53;18.70;;;7.70;73.20;;;;;;6228540;28;20997;-67
2022/01/16 15:51:43;;;;;;;21.60;18.57;;;7.60;73.70;;;;;;6228608;28;20555;-67
2022/01/16 15:54:56;;;;;;;24.20;19.33;;;7.50;75.30;;;;;;6227651;28;20472;-67
2022/01/16 15:57:59;;;;;;;23.70;19.90;;;7.40;75.70;;;;;;6229076;28;20468;-67
2022/01/16 16:01:04;;;;;;;23.80;19.50;;;7.30;77.00;;;;;;6228723;28;20464;-66
2022/01/16 16:04:08;;;;;;;28.20;20.50;;;7.20;77.40;;;;;;6229148;28;20695;-67
2022/01/16 16:07:13;;;;;;;23.70;21.10;;;7.10;78.20;;;;;;6229253;28;20486;-66
2022/01/16 16:10:17;;;;;;;29.03;21.73;;;7.00;79.20;;;;;;6229854;28;20518;-66
2022/01/16 16:13:21;;;;;;;27.27;21.80;;;7.00;79.50;;;;;;6228937;28;20472;-66
2022/01/16 16:16:24;;;;;;;29.13;26.23;;;6.90;80.20;;;;;;6228967;28;20479;-66
2022/01/16 16:19:27;;;;;;;28.23;23.27;;;6.80;80.70;;;;;;6231382;28;20813;-66